Time;durP1;ratioP1;P1;durP2;ratioP2;P2;SDS_P1;SDS_P2;PMS_P1;PMS_P2;Temp;Humidity;BMP_temperature;BMP_pressure;BME280_temperature;BME280_humidity;BME280_pressure;Samples;Min_cycle;Max_cycle;Signal;HPM_P1;HPM_P2
2022/09/26 00:00:43;;;;;;;8.52;1.63;;;;;;;;;;5049278;28;20033;-60
2022/09/26 00:03:10;;;;;;;6.05;1.77;;;;;;;;;;5050494;28;20167;-60
2022/09/26 00:05:37;;;;;;;9.32;2.10;;;;;;;;;;5055926;28;20050;-60
2022/09/26 00:08:04;;;;;;;5.13;1.70;;;;;;;;;;5054575;28;20067;-59
2022/09/26 00:10:30;;;;;;;4.80;1.60;;;;;;;;;;5054508;28;20044;-60
2022/09/26 00:12:57;;;;;;;8.68;1.98;;;;;;;;;;5040635;28;20146;-60
2022/09/26 00:15:23;;;;;;;5.82;1.50;;;;;;;;;;5037554;28;20037;-60
2022/09/26 00:17:50;;;;;;;5.68;1.58;;;;;;;;;;5037908;28;20049;-59
2022/09/26 00:20:16;;;;;;;9.80;1.63;;;;;;;;;;5033287;28;20493;-60
2022/09/26 00:22:42;;;;;;;6.63;1.40;;;;;;;;;;5053396;28;20036;-60
2022/09/26 00:25:09;;;;;;;7.22;1.83;;;;;;;;;;5052064;28;20106;-60
2022/09/26 00:27:35;;;;;;;6.25;1.67;;;;;;;;;;5045227;28;20533;-60
2022/09/26 00:30:01;;;;;;;12.10;2.10;;;;;;;;;;5058415;28;20037;-60
2022/09/26 00:32:27;;;;;;;9.00;1.50;;;;;;;;;;5061992;28;20168;-60
2022/09/26 00:34:53;;;;;;;7.38;1.70;;;;;;;;;;5061393;28;20429;-60
2022/09/26 00:37:19;;;;;;;8.98;1.50;;;;;;;;;;5059858;28;21915;-60
2022/09/26 00:39:46;;;;;;;6.65;1.48;;;;;;;;;;5062914;28;20439;-60
2022/09/26 00:42:13;;;;;;;6.55;1.48;;;;;;;;;;5058769;28;20048;-60
2022/09/26 00:44:43;;;;;;;9.35;1.50;;;;;;;;;;5052769;28;20222;-60
2022/09/26 00:47:19;;;;;;;7.10;1.40;;;;;;;;;;5058544;28;20048;-60
2022/09/26 00:49:48;;;;;;;5.85;1.30;;;;;;;;;;5057753;28;20067;-60
2022/09/26 00:52:24;;;;;;;6.35;1.50;;;;;;;;;;5062513;28;20556;-60
2022/09/26 00:54:52;;;;;;;10.95;1.58;;;;;;;;;;5042262;28;20349;-60
2022/09/26 00:57:21;;;;;;;5.15;1.23;;;;;;;;;;5059153;28;20399;-60
2022/09/26 00:59:49;;;;;;;7.75;1.20;;;;;;;;;;5057976;28;20064;-60
2022/09/26 01:02:16;;;;;;;8.32;2.10;;;;;;;;;;5055496;28;20127;-60
2022/09/26 01:04:43;;;;;;;8.25;2.03;;;;;;;;;;5059733;28;20119;-60
2022/09/26 01:07:13;;;;;;;8.27;1.40;;;;;;;;;;5057969;28;20051;-60
2022/09/26 01:09:39;;;;;;;6.97;1.50;;;;;;;;;;5059758;28;20692;-60
2022/09/26 01:12:07;;;;;;;8.93;1.50;;;;;;;;;;5056832;28;20497;-60
2022/09/26 01:14:34;;;;;;;4.93;0.98;;;;;;;;;;5055257;28;20399;-60
2022/09/26 01:17:00;;;;;;;5.30;1.35;;;;;;;;;;5051976;28;20112;-60
2022/09/26 01:19:39;;;;;;;5.05;1.20;;;;;;;;;;5051395;28;21994;-60
2022/09/26 01:22:18;;;;;;;8.15;1.20;;;;;;;;;;5056327;28;20526;-60
2022/09/26 01:24:50;;;;;;;5.70;1.80;;;;;;;;;;5057049;28;20036;-60
2022/09/26 01:27:16;;;;;;;7.35;1.30;;;;;;;;;;5054847;28;20104;-60
2022/09/26 01:29:52;;;;;;;8.93;1.10;;;;;;;;;;5059189;28;20089;-59
2022/09/26 01:32:49;;;;;;;5.40;1.67;;;;;;;;;;5061213;28;20119;-59
2022/09/26 01:35:24;;;;;;;6.88;1.63;;;;;;;;;;5051976;28;20056;-60
2022/09/26 01:38:10;;;;;;;5.93;1.85;;;;;;;;;;5053989;28;20087;-60
2022/09/26 01:40:43;;;;;;;6.05;1.73;;;;;;;;;;5057315;28;20041;-60
2022/09/26 01:43:14;;;;;;;8.27;2.45;;;;;;;;;;5056575;28;20497;-60
2022/09/26 01:45:45;;;;;;;5.90;2.10;;;;;;;;;;5058041;28;20139;-59
2022/09/26 01:48:17;;;;;;;12.52;2.30;;;;;;;;;;5058061;28;20041;-59
2022/09/26 01:50:47;;;;;;;10.85;2.47;;;;;;;;;;5033881;28;20053;-59
2022/09/26 01:53:23;;;;;;;6.68;2.47;;;;;;;;;;5045329;28;20041;-59
2022/09/26 01:55:52;;;;;;;12.07;2.90;;;;;;;;;;5057497;28;20127;-59
2022/09/26 01:58:22;;;;;;;10.02;2.95;;;;;;;;;;5055863;28;20037;-59
2022/09/26 02:00:48;;;;;;;8.73;2.67;;;;;;;;;;5050723;28;20108;-59
2022/09/26 02:03:18;;;;;;;6.93;2.97;;;;;;;;;;5054612;28;20047;-59
2022/09/26 02:05:59;;;;;;;7.95;3.20;;;;;;;;;;5059728;28;20115;-59
2022/09/26 02:08:30;;;;;;;11.65;3.75;;;;;;;;;;5059183;28;20045;-59
2022/09/26 02:11:01;;;;;;;9.73;3.97;;;;;;;;;;5056392;28;20404;-59
2022/09/26 02:13:31;;;;;;;12.63;4.25;;;;;;;;;;5041372;28;20096;-59
2022/09/26 02:16:00;;;;;;;12.63;4.05;;;;;;;;;;5053427;28;20422;-59
2022/09/26 02:18:30;;;;;;;18.88;5.15;;;;;;;;;;5049066;28;20095;-59
2022/09/26 02:21:02;;;;;;;12.95;4.63;;;;;;;;;;5033052;28;20066;-59
2022/09/26 02:23:28;;;;;;;11.90;5.13;;;;;;;;;;5039299;28;20123;-59
2022/09/26 02:25:54;;;;;;;12.63;4.72;;;;;;;;;;5056877;28;20114;-59
2022/09/26 02:28:21;;;;;;;14.27;4.85;;;;;;;;;;5039770;28;20044;-59
2022/09/26 02:30:49;;;;;;;13.68;5.97;;;;;;;;;;5057037;28;20396;-59
2022/09/26 02:33:15;;;;;;;15.25;5.20;;;;;;;;;;5055337;28;20052;-59
2022/09/26 02:35:54;;;;;;;14.13;5.13;;;;;;;;;;5058502;28;20040;-59
2022/09/26 02:38:22;;;;;;;12.75;5.70;;;;;;;;;;5055566;28;20084;-59
2022/09/26 02:41:06;;;;;;;13.07;5.22;;;;;;;;;;5059115;28;20499;-59
2022/09/26 02:43:43;;;;;;;14.02;5.88;;;;;;;;;;5051460;28;20403;-59
2022/09/26 02:46:21;;;;;;;9.38;5.45;;;;;;;;;;5050399;28;20064;-59
2022/09/26 02:49:03;;;;;;;10.20;5.63;;;;;;;;;;5048884;28;20090;-59
2022/09/26 02:51:38;;;;;;;12.15;5.47;;;;;;;;;;5049617;28;20049;-59
2022/09/26 02:54:22;;;;;;;14.20;5.85;;;;;;;;;;5059216;28;20112;-59
2022/09/26 02:56:49;;;;;;;15.43;5.85;;;;;;;;;;5055619;28;20111;-59
2022/09/26 02:59:15;;;;;;;12.27;5.93;;;;;;;;;;5057801;28;20036;-59
2022/09/26 03:01:54;;;;;;;13.20;5.88;;;;;;;;;;5052918;28;20071;-59
2022/09/26 03:04:30;;;;;;;16.92;5.80;;;;;;;;;;5035993;28;20057;-59
2022/09/26 03:06:58;;;;;;;16.33;6.45;;;;;;;;;;5060749;28;20070;-59
2022/09/26 03:09:25;;;;;;;11.88;6.22;;;;;;;;;;5051099;28;20365;-59
2022/09/26 03:11:52;;;;;;;19.45;6.07;;;;;;;;;;5054363;28;20484;-59
2022/09/26 03:14:21;;;;;;;13.43;6.10;;;;;;;;;;5051512;28;20136;-59
2022/09/26 03:16:49;;;;;;;11.05;5.78;;;;;;;;;;5055755;28;20048;-59
2022/09/26 03:19:21;;;;;;;16.23;6.20;;;;;;;;;;5052261;28;20041;-59
2022/09/26 03:21:47;;;;;;;11.70;6.18;;;;;;;;;;5057310;28;20436;-59
2022/09/26 03:24:13;;;;;;;12.52;6.25;;;;;;;;;;5041806;28;20075;-59
2022/09/26 03:26:40;;;;;;;10.82;5.72;;;;;;;;;;5055733;28;20044;-59
2022/09/26 03:29:07;;;;;;;15.88;6.68;;;;;;;;;;5053128;28;20052;-59
2022/09/26 03:31:33;;;;;;;14.98;6.70;;;;;;;;;;5055723;28;20031;-59
2022/09/26 03:33:59;;;;;;;14.05;6.55;;;;;;;;;;5051317;28;20127;-59
2022/09/26 03:36:26;;;;;;;12.85;7.55;;;;;;;;;;5056921;28;20051;-59
2022/09/26 03:38:52;;;;;;;14.15;7.20;;;;;;;;;;5033833;28;20072;-59
2022/09/26 03:41:18;;;;;;;14.07;7.70;;;;;;;;;;5054417;28;20082;-59
2022/09/26 03:43:44;;;;;;;10.65;6.22;;;;;;;;;;5054370;28;20037;-59
2022/09/26 03:46:11;;;;;;;15.35;6.88;;;;;;;;;;5056183;28;20488;-59
2022/09/26 03:48:37;;;;;;;16.38;6.80;;;;;;;;;;5054331;28;20064;-59
2022/09/26 03:51:04;;;;;;;16.90;7.57;;;;;;;;;;5055348;28;20381;-59
2022/09/26 03:53:32;;;;;;;13.02;6.95;;;;;;;;;;5048776;28;20495;-60
2022/09/26 03:56:05;;;;;;;13.27;7.40;;;;;;;;;;5054687;28;20514;-59
2022/09/26 03:58:31;;;;;;;11.95;7.22;;;;;;;;;;5039032;28;20044;-59
2022/09/26 04:01:02;;;;;;;17.70;7.63;;;;;;;;;;5057592;28;20119;-59
2022/09/26 04:03:28;;;;;;;11.35;6.93;;;;;;;;;;5060084;28;20436;-59
2022/09/26 04:05:54;;;;;;;14.32;7.03;;;;;;;;;;5058295;28;20514;-60
2022/09/26 04:08:20;;;;;;;14.80;6.13;;;;;;;;;;5039793;28;20071;-59
2022/09/26 04:10:46;;;;;;;12.85;5.63;;;;;;;;;;5060283;28;20112;-59
2022/09/26 04:13:13;;;;;;;11.88;5.78;;;;;;;;;;5058242;28;20033;-59
2022/09/26 04:15:39;;;;;;;9.90;5.97;;;;;;;;;;5043528;28;21013;-59
2022/09/26 04:18:05;;;;;;;12.40;6.18;;;;;;;;;;5037615;28;20044;-59
2022/09/26 04:20:31;;;;;;;13.50;5.63;;;;;;;;;;5055120;28;20060;-59
2022/09/26 04:22:57;;;;;;;12.38;5.20;;;;;;;;;;5056851;28;20454;-59
2022/09/26 04:25:23;;;;;;;11.30;5.82;;;;;;;;;;5059279;28;20056;-59
2022/09/26 04:27:49;;;;;;;11.98;5.00;;;;;;;;;;5058791;28;20620;-59
2022/09/26 04:30:16;;;;;;;16.05;5.50;;;;;;;;;;5055909;28;20118;-59
2022/09/26 04:32:42;;;;;;;9.43;5.15;;;;;;;;;;5055355;28;20140;-59
2022/09/26 04:35:08;;;;;;;12.60;5.63;;;;;;;;;;5056281;28;20060;-59
2022/09/26 04:37:35;;;;;;;16.00;5.68;;;;;;;;;;5059734;28;20032;-59
2022/09/26 04:40:03;;;;;;;11.00;5.90;;;;;;;;;;5061999;28;20483;-59
2022/09/26 04:42:32;;;;;;;15.13;6.35;;;;;;;;;;5040603;28;20093;-59
2022/09/26 04:44:58;;;;;;;11.25;6.28;;;;;;;;;;5059295;28;20044;-59
2022/09/26 04:47:25;;;;;;;15.07;6.18;;;;;;;;;;5057734;28;20032;-59
2022/09/26 04:49:51;;;;;;;13.75;6.45;;;;;;;;;;5053449;28;20037;-59
2022/09/26 04:52:17;;;;;;;17.90;8.38;;;;;;;;;;5056656;28;20061;-59
2022/09/26 04:54:43;;;;;;;13.98;6.68;;;;;;;;;;5054097;28;20093;-59
2022/09/26 04:57:09;;;;;;;10.85;6.55;;;;;;;;;;5057726;28;20085;-59
2022/09/26 04:59:35;;;;;;;15.05;7.35;;;;;;;;;;5055397;28;20101;-59
2022/09/26 05:02:07;;;;;;;13.75;7.57;;;;;;;;;;5053010;28;20505;-59
2022/09/26 05:04:34;;;;;;;19.30;7.50;;;;;;;;;;5057905;28;20049;-59
2022/09/26 05:07:01;;;;;;;13.77;7.20;;;;;;;;;;5061822;28;20089;-59
2022/09/26 05:09:27;;;;;;;13.95;7.07;;;;;;;;;;5055997;28;20423;-59
2022/09/26 05:11:53;;;;;;;13.43;7.57;;;;;;;;;;5058474;28;20120;-58
2022/09/26 05:14:19;;;;;;;18.67;7.18;;;;;;;;;;5053133;28;20049;-59
2022/09/26 05:16:46;;;;;;;13.07;7.82;;;;;;;;;;5054420;28;20110;-59
2022/09/26 05:19:12;;;;;;;18.52;8.52;;;;;;;;;;5050991;28;20131;-58
2022/09/26 05:21:38;;;;;;;14.60;7.88;;;;;;;;;;5053570;28;20076;-59
2022/09/26 05:26:51;;;;;;;12.23;7.82;;;;;;;;;;5035184;28;20116;-59
2022/09/26 05:29:19;;;;;;;15.05;8.95;;;;;;;;;;5056020;28;20081;-59
2022/09/26 05:31:45;;;;;;;15.98;8.63;;;;;;;;;;5057937;28;20067;-59
2022/09/26 05:34:12;;;;;;;13.48;8.60;;;;;;;;;;5058611;28;20408;-59
2022/09/26 05:36:41;;;;;;;13.75;8.82;;;;;;;;;;5058444;28;20040;-59
2022/09/26 05:40:55;;;;;;;20.73;8.95;;;;;;;;;;5058906;28;20044;-59
2022/09/26 05:41:55;;;;;;;15.55;9.25;;;;;;;;;;5057264;28;20441;-58
2022/09/26 05:44:21;;;;;;;15.40;8.40;;;;;;;;;;5059087;28;20433;-59
2022/09/26 05:46:49;;;;;;;14.15;8.77;;;;;;;;;;5056449;28;20353;-58
2022/09/26 05:49:15;;;;;;;14.38;8.23;;;;;;;;;;5058345;28;20044;-58
2022/09/26 05:51:42;;;;;;;15.90;7.97;;;;;;;;;;5055619;28;20145;-58
2022/09/26 05:54:08;;;;;;;13.75;7.57;;;;;;;;;;5053508;28;20044;-58
2022/09/26 05:56:36;;;;;;;16.83;8.30;;;;;;;;;;5051959;28;20040;-59
2022/09/26 05:59:03;;;;;;;15.45;7.22;;;;;;;;;;5044412;28;20095;-59
2022/09/26 06:01:30;;;;;;;12.10;6.90;;;;;;;;;;5046099;28;20118;-59
2022/09/26 06:03:56;;;;;;;17.67;7.75;;;;;;;;;;5056109;28;20051;-59
2022/09/26 06:06:22;;;;;;;13.27;6.60;;;;;;;;;;5043983;28;20639;-59
2022/09/26 06:08:49;;;;;;;13.35;7.47;;;;;;;;;;5056432;28;20396;-59
2022/09/26 06:11:16;;;;;;;12.35;7.07;;;;;;;;;;5038393;28;20065;-59
2022/09/26 06:13:44;;;;;;;14.20;6.68;;;;;;;;;;5049607;28;20045;-58
2022/09/26 06:16:12;;;;;;;16.27;6.55;;;;;;;;;;5058925;28;20032;-59
2022/09/26 06:18:40;;;;;;;10.18;6.60;;;;;;;;;;5053788;28;20045;-59
2022/09/26 06:21:08;;;;;;;13.63;7.10;;;;;;;;;;5052945;28;20135;-59
2022/09/26 06:23:35;;;;;;;12.45;6.63;;;;;;;;;;5049095;28;20533;-59
2022/09/26 06:26:02;;;;;;;11.45;6.05;;;;;;;;;;5051881;28;20040;-59
2022/09/26 06:28:29;;;;;;;11.13;5.72;;;;;;;;;;5054257;28;20052;-59
2022/09/26 06:30:55;;;;;;;11.32;5.70;;;;;;;;;;5055603;28;20040;-59
2022/09/26 06:33:22;;;;;;;13.50;5.82;;;;;;;;;;5050495;28;20434;-59
2022/09/26 06:35:58;;;;;;;13.35;5.28;;;;;;;;;;5054309;28;20041;-66
2022/09/26 06:38:24;;;;;;;10.10;4.80;;;;;;;;;;5058372;28;20558;-59
2022/09/26 06:40:52;;;;;;;12.13;4.93;;;;;;;;;;5057853;28;20404;-59
2022/09/26 06:43:18;;;;;;;14.88;5.35;;;;;;;;;;5039656;28;20191;-59
2022/09/26 06:45:44;;;;;;;14.40;5.28;;;;;;;;;;5044477;28;20093;-59
2022/09/26 06:48:12;;;;;;;9.52;5.75;;;;;;;;;;5046666;28;20142;-59
2022/09/26 06:50:38;;;;;;;13.63;5.00;;;;;;;;;;5051882;28;20591;-59
2022/09/26 06:53:04;;;;;;;14.18;5.60;;;;;;;;;;5054760;28;20056;-59
2022/09/26 06:55:30;;;;;;;16.42;5.95;;;;;;;;;;5062490;28;20036;-59
2022/09/26 06:57:57;;;;;;;15.95;6.47;;;;;;;;;;5056116;28;20124;-59
2022/09/26 07:00:24;;;;;;;13.55;5.72;;;;;;;;;;5063702;28;20119;-59
2022/09/26 07:02:51;;;;;;;10.65;5.90;;;;;;;;;;5045118;28;21775;-59
2022/09/26 07:07:47;;;;;;;16.67;7.20;;;;;;;;;;4981870;28;20093;-63
2022/09/26 07:10:15;;;;;;;14.48;6.65;;;;;;;;;;4990250;28;20062;-63
2022/09/26 07:12:46;;;;;;;10.10;5.25;;;;;;;;;;4982204;28;20073;-66
2022/09/26 07:15:14;;;;;;;13.02;5.88;;;;;;;;;;4971528;28;20408;-66
2022/09/26 07:17:41;;;;;;;16.52;5.63;;;;;;;;;;4972596;28;20062;-66
2022/09/26 07:20:10;;;;;;;8.57;4.75;;;;;;;;;;4972739;28;20088;-64
2022/09/26 07:22:36;;;;;;;7.43;4.50;;;;;;;;;;4974192;28;20449;-63
2022/09/26 07:25:03;;;;;;;12.23;5.50;;;;;;;;;;4986238;28;20073;-63
2022/09/26 07:27:29;;;;;;;11.50;5.40;;;;;;;;;;4990143;28;20065;-63
2022/09/26 07:29:55;;;;;;;11.48;4.78;;;;;;;;;;4971206;28;20509;-63
2022/09/26 07:32:22;;;;;;;11.50;5.20;;;;;;;;;;4989220;28;20074;-64
2022/09/26 07:34:48;;;;;;;8.18;4.60;;;;;;;;;;4988748;28;20069;-63
2022/09/26 07:37:15;;;;;;;9.07;4.22;;;;;;;;;;4989242;28;20052;-64
2022/09/26 07:39:41;;;;;;;9.05;4.53;;;;;;;;;;4994112;28;20061;-63
2022/09/26 07:42:08;;;;;;;8.95;4.55;;;;;;;;;;4974829;28;20088;-64
2022/09/26 07:44:35;;;;;;;9.27;4.60;;;;;;;;;;4990809;28;20054;-64
2022/09/26 07:52:31;;;;;;;7.03;4.15;;;;;;;;;;4991035;28;20050;-64
2022/09/26 07:54:57;;;;;;;10.05;4.35;;;;;;;;;;4992147;28;20054;-64
2022/09/26 07:57:23;;;;;;;17.80;5.85;;;;;;;;;;5007055;28;20045;-63
2022/09/26 07:59:50;;;;;;;12.73;5.20;;;;;;;;;;4997052;28;20043;-63
2022/09/26 08:02:21;;;;;;;8.43;3.72;;;;;;;;;;4992899;28;20070;-64
2022/09/26 08:04:47;;;;;;;11.73;3.85;;;;;;;;;;4974087;28;20089;-64
2022/09/26 08:07:14;;;;;;;7.85;3.65;;;;;;;;;;4995376;28;20069;-63
2022/09/26 08:09:40;;;;;;;10.73;3.22;;;;;;;;;;4996256;28;20050;-63
2022/09/26 08:12:06;;;;;;;9.02;3.97;;;;;;;;;;4991131;28;20121;-63
2022/09/26 08:14:32;;;;;;;8.68;3.67;;;;;;;;;;4990603;28;20050;-63
2022/09/26 08:16:58;;;;;;;8.27;3.70;;;;;;;;;;4999368;28;20046;-64
2022/09/26 08:19:24;;;;;;;8.05;3.28;;;;;;;;;;4992758;28;20081;-65
2022/09/26 08:21:51;;;;;;;9.35;3.63;;;;;;;;;;4989371;28;20042;-64
2022/09/26 08:24:17;;;;;;;7.95;3.70;;;;;;;;;;4989232;28;20065;-63
2022/09/26 08:26:43;;;;;;;9.35;3.70;;;;;;;;;;4983239;28;20038;-64
2022/09/26 08:29:11;;;;;;;11.98;3.92;;;;;;;;;;4987393;28;20057;-64
2022/09/26 08:31:37;;;;;;;8.50;3.40;;;;;;;;;;4991333;28;20042;-64
2022/09/26 08:34:04;;;;;;;10.77;3.40;;;;;;;;;;4991076;28;20042;-64
2022/09/26 08:36:31;;;;;;;9.35;3.55;;;;;;;;;;4990876;28;20572;-64
2022/09/26 08:38:58;;;;;;;9.15;3.13;;;;;;;;;;4991576;28;20058;-64
2022/09/26 08:41:43;;;;;;;8.85;3.30;;;;;;;;;;4990961;28;20060;-64
2022/09/26 08:44:23;;;;;;;10.73;4.10;;;;;;;;;;4990629;28;20060;-64
2022/09/26 08:47:01;;;;;;;10.50;3.90;;;;;;;;;;4986332;28;20042;-64
2022/09/26 08:49:43;;;;;;;10.23;3.40;;;;;;;;;;4986392;28;20069;-64
2022/09/26 08:52:19;;;;;;;8.20;3.65;;;;;;;;;;4989568;28;20046;-65
2022/09/26 08:54:45;;;;;;;11.82;3.80;;;;;;;;;;4957098;28;20050;-64
2022/09/26 08:57:33;;;;;;;11.48;4.30;;;;;;;;;;4987329;28;20419;-63
2022/09/26 09:00:03;;;;;;;9.05;3.75;;;;;;;;;;4985526;28;20061;-63
2022/09/26 09:02:33;;;;;;;9.65;3.92;;;;;;;;;;4989720;28;20398;-63
2022/09/26 09:05:09;;;;;;;9.15;4.70;;;;;;;;;;4988641;28;20057;-64
2022/09/26 09:07:35;;;;;;;16.40;5.22;;;;;;;;;;4962229;28;20046;-64
2022/09/26 09:10:04;;;;;;;15.85;6.00;;;;;;;;;;4985033;28;20389;-63
2022/09/26 09:12:36;;;;;;;12.73;5.72;;;;;;;;;;4990722;28;20061;-63
2022/09/26 09:15:20;;;;;;;17.20;5.90;;;;;;;;;;4988209;28;20078;-64
2022/09/26 09:18:00;;;;;;;12.13;5.95;;;;;;;;;;4987067;28;20042;-64
2022/09/26 09:20:34;;;;;;;12.85;6.53;;;;;;;;;;4988920;28;20050;-63
2022/09/26 09:23:09;;;;;;;12.00;7.47;;;;;;;;;;4984976;28;20042;-63
2022/09/26 09:25:42;;;;;;;11.95;7.50;;;;;;;;;;4990658;28;20039;-64
2022/09/26 09:28:31;;;;;;;13.97;6.97;;;;;;;;;;4990322;28;20085;-63
2022/09/26 09:31:08;;;;;;;18.65;8.13;;;;;;;;;;4987116;28;20676;-64
2022/09/26 09:33:41;;;;;;;14.88;7.70;;;;;;;;;;4987489;28;20050;-63
2022/09/26 09:36:12;;;;;;;18.17;9.07;;;;;;;;;;4987295;28;20046;-64
2022/09/26 09:38:40;;;;;;;14.77;8.23;;;;;;;;;;4991231;28;20342;-64
2022/09/26 09:41:13;;;;;;;16.40;8.95;;;;;;;;;;4989091;28;20490;-65
2022/09/26 09:43:42;;;;;;;16.48;7.95;;;;;;;;;;4987797;28;21260;-65
2022/09/26 09:46:13;;;;;;;16.50;8.68;;;;;;;;;;4981805;28;20050;-64
2022/09/26 09:48:40;;;;;;;17.42;8.63;;;;;;;;;;4987862;28;20044;-65
2022/09/26 09:51:12;;;;;;;13.52;9.23;;;;;;;;;;4988530;28;20050;-64
2022/09/26 09:53:56;;;;;;;12.70;8.25;;;;;;;;;;4989715;28;20113;-65
2022/09/26 09:56:24;;;;;;;16.27;8.93;;;;;;;;;;4988313;28;20058;-65
2022/09/26 09:58:57;;;;;;;15.13;9.18;;;;;;;;;;4989380;28;20053;-65
2022/09/26 10:01:26;;;;;;;15.02;10.00;;;;;;;;;;4986114;28;20367;-65
2022/09/26 10:03:57;;;;;;;17.85;9.30;;;;;;;;;;4986699;28;20485;-65
2022/09/26 10:06:24;;;;;;;16.20;9.23;;;;;;;;;;4987213;28;20053;-65
2022/09/26 10:08:50;;;;;;;17.00;9.65;;;;;;;;;;4953132;28;20494;-65
2022/09/26 10:11:21;;;;;;;18.00;9.80;;;;;;;;;;4951465;28;21914;-65
2022/09/26 10:13:49;;;;;;;20.27;11.57;;;;;;;;;;4968266;28;20150;-66
2022/09/26 10:16:15;;;;;;;19.15;11.90;;;;;;;;;;4952300;28;20039;-65
2022/09/26 10:18:53;;;;;;;15.63;10.77;;;;;;;;;;4952022;28;20055;-66
2022/09/26 10:21:19;;;;;;;15.65;10.65;;;;;;;;;;4952233;28;20051;-65
2022/09/26 10:23:49;;;;;;;14.50;10.30;;;;;;;;;;4951295;28;20126;-65
2022/09/26 10:26:17;;;;;;;19.35;10.40;;;;;;;;;;4969367;28;20050;-66
2022/09/26 10:28:46;;;;;;;20.98;11.10;;;;;;;;;;4936244;28;20043;-66
2022/09/26 10:31:21;;;;;;;16.27;10.73;;;;;;;;;;4951558;28;20043;-65
2022/09/26 10:33:49;;;;;;;18.05;11.77;;;;;;;;;;4951065;28;20038;-65
2022/09/26 10:36:18;;;;;;;20.52;12.13;;;;;;;;;;4953236;28;20046;-65
2022/09/26 10:40:43;;;;;;;18.73;12.23;;;;;;;;;;4966749;28;20035;-65
2022/09/26 10:41:40;;;;;;;20.42;13.25;;;;;;;;;;4944711;28;20570;-65
2022/09/26 10:44:20;;;;;;;23.50;14.20;;;;;;;;;;4963886;28;20512;-65
2022/09/26 10:46:48;;;;;;;27.67;14.77;;;;;;;;;;4961203;28;20522;-66
2022/09/26 10:49:16;;;;;;;20.15;13.85;;;;;;;;;;4963119;28;20508;-66
2022/09/26 10:51:44;;;;;;;20.35;14.63;;;;;;;;;;4947137;28;20061;-66
2022/09/26 10:54:12;;;;;;;24.80;16.60;;;;;;;;;;4962130;28;20177;-65
2022/09/26 10:56:45;;;;;;;24.80;16.50;;;;;;;;;;4963296;28;20137;-65
2022/09/26 10:59:13;;;;;;;23.13;16.43;;;;;;;;;;4947714;28;20158;-65
2022/09/26 11:01:42;;;;;;;19.92;15.63;;;;;;;;;;4968485;28;20309;-65
2022/09/26 11:04:12;;;;;;;30.42;15.65;;;;;;;;;;4967295;28;20042;-65
2022/09/26 11:06:42;;;;;;;20.75;14.32;;;;;;;;;;4951014;28;20050;-65
2022/09/26 11:09:10;;;;;;;23.27;15.88;;;;;;;;;;4979984;28;20070;-65
2022/09/26 11:11:37;;;;;;;21.85;14.48;;;;;;;;;;4982128;28;20047;-65
2022/09/26 11:14:06;;;;;;;21.50;15.23;;;;;;;;;;4984109;28;20065;-66
2022/09/26 11:16:38;;;;;;;23.30;15.23;;;;;;;;;;4983234;28;20062;-66
2022/09/26 11:19:21;;;;;;;22.33;14.70;;;;;;;;;;4985108;28;20719;-65
2022/09/26 11:22:04;;;;;;;18.95;14.38;;;;;;;;;;4981765;28;20438;-65
2022/09/26 11:24:36;;;;;;;16.40;13.80;;;;;;;;;;4984025;28;20097;-66
2022/09/26 11:27:18;;;;;;;20.33;12.98;;;;;;;;;;4985418;28;20058;-65
2022/09/26 11:29:54;;;;;;;20.83;13.88;;;;;;;;;;4982359;28;20096;-65
2022/09/26 11:32:26;;;;;;;20.55;14.43;;;;;;;;;;4982226;28;20050;-65
2022/09/26 11:34:53;;;;;;;19.90;14.93;;;;;;;;;;4980969;28;20121;-66
2022/09/26 11:37:38;;;;;;;21.48;14.73;;;;;;;;;;4982794;28;20047;-66
2022/09/26 11:40:16;;;;;;;18.10;12.77;;;;;;;;;;4981802;28;20042;-66
2022/09/26 11:43:02;;;;;;;21.75;15.57;;;;;;;;;;4979614;28;20496;-66
2022/09/26 11:45:31;;;;;;;18.75;13.82;;;;;;;;;;4982170;28;20394;-66
2022/09/26 11:48:01;;;;;;;20.00;14.20;;;;;;;;;;4982906;28;20509;-66
2022/09/26 11:50:34;;;;;;;20.77;15.00;;;;;;;;;;4978925;28;20394;-66
2022/09/26 11:53:09;;;;;;;19.42;15.05;;;;;;;;;;4979623;28;20046;-66
2022/09/26 11:55:46;;;;;;;20.27;13.27;;;;;;;;;;4981430;28;20057;-66
2022/09/26 11:58:20;;;;;;;21.77;15.07;;;;;;;;;;4978233;28;20042;-66
2022/09/26 12:01:10;;;;;;;20.83;15.77;;;;;;;;;;4979579;28;20109;-65
2022/09/26 12:03:48;;;;;;;23.65;16.17;;;;;;;;;;4979939;28;20058;-65
2022/09/26 12:06:20;;;;;;;22.23;16.48;;;;;;;;;;4981038;28;20069;-65
2022/09/26 12:08:46;;;;;;;18.98;15.30;;;;;;;;;;4980998;28;20050;-65
2022/09/26 12:11:18;;;;;;;17.50;13.55;;;;;;;;;;4976657;28;20054;-65
2022/09/26 12:13:51;;;;;;;24.10;15.85;;;;;;;;;;4980262;28;20043;-65
2022/09/26 12:16:28;;;;;;;17.77;14.35;;;;;;;;;;4983532;28;20401;-65
2022/09/26 12:18:58;;;;;;;16.52;14.48;;;;;;;;;;4981861;28;20410;-65
2022/09/26 12:21:37;;;;;;;20.35;15.40;;;;;;;;;;4982926;28;20093;-65
2022/09/26 12:24:06;;;;;;;18.35;15.43;;;;;;;;;;4981945;28;20113;-65
2022/09/26 12:26:38;;;;;;;15.07;11.82;;;;;;;;;;4986661;28;20050;-65
2022/09/26 12:29:06;;;;;;;16.30;10.98;;;;;;;;;;4987021;28;20050;-65
2022/09/26 12:31:47;;;;;;;17.05;11.48;;;;;;;;;;4982760;28;20125;-65
2022/09/26 12:34:29;;;;;;;12.13;10.80;;;;;;;;;;4985922;28;20109;-65
2022/09/26 12:37:05;;;;;;;16.27;10.63;;;;;;;;;;4986005;28;20568;-65
2022/09/26 12:39:41;;;;;;;16.05;10.10;;;;;;;;;;4985622;28;20397;-65
2022/09/26 12:42:21;;;;;;;15.88;8.25;;;;;;;;;;4982623;28;20389;-65
2022/09/26 12:44:55;;;;;;;13.20;9.30;;;;;;;;;;4984506;28;20071;-65
2022/09/26 12:47:21;;;;;;;14.43;9.95;;;;;;;;;;4981136;28;20093;-65
2022/09/26 12:50:00;;;;;;;15.63;9.38;;;;;;;;;;4987301;28;20078;-65
2022/09/26 12:52:35;;;;;;;16.23;8.32;;;;;;;;;;4986591;28;20168;-65
2022/09/26 12:55:08;;;;;;;15.25;7.88;;;;;;;;;;4981722;28;20046;-65
2022/09/26 12:57:52;;;;;;;14.63;8.27;;;;;;;;;;4985289;28;20402;-65
2022/09/26 13:00:20;;;;;;;;;;;;;;;;;;4967120;28;20065;-65
2022/09/26 13:03:15;;;;;;;13.18;7.50;;;;;;;;;;4984506;28;20024;-66
2022/09/26 13:05:47;;;;;;;12.38;6.63;;;;;;;;;;4985289;28;20050;-65
2022/09/26 13:08:29;;;;;;;14.52;8.07;;;;;;;;;;4981348;28;20137;-65
2022/09/26 13:11:19;;;;;;;18.15;9.27;;;;;;;;;;4986675;28;20064;-65
2022/09/26 13:13:53;;;;;;;18.05;7.22;;;;;;;;;;4981488;28;20524;-70
2022/09/26 13:16:19;;;;;;;;;;;;;;;;;;4983646;28;20043;-65
2022/09/26 13:18:47;;;;;;;14.23;4.10;;;;;;;;;;4983995;28;19932;-65
2022/09/26 13:21:17;;;;;;;12.88;4.25;;;;;;;;;;4981194;28;20101;-65
2022/09/26 13:23:50;;;;;;;10.70;3.20;;;;;;;;;;4985059;28;20383;-66
2022/09/26 13:26:24;;;;;;;19.47;3.93;;;;;;;;;;4985690;28;20057;-65
2022/09/26 13:28:53;;;;;;;23.05;5.57;;;;;;;;;;4985433;28;20378;-65
2022/09/26 13:31:22;;;;;;;11.35;2.60;;;;;;;;;;4986635;28;20076;-65
2022/09/26 13:33:55;;;;;;;10.60;2.78;;;;;;;;;;4985043;28;20046;-65
2022/09/26 13:36:22;;;;;;;7.57;1.77;;;;;;;;;;4982044;28;20493;-65
2022/09/26 13:38:52;;;;;;;9.40;1.30;;;;;;;;;;4982612;28;20527;-64
2022/09/26 13:41:18;;;;;;;11.27;1.80;;;;;;;;;;4984563;28;20050;-65
2022/09/26 13:43:52;;;;;;;10.07;1.85;;;;;;;;;;4985547;28;20050;-65
2022/09/26 13:46:25;;;;;;;8.63;2.42;;;;;;;;;;4984711;28;20547;-66
2022/09/26 13:49:00;;;;;;;7.72;1.88;;;;;;;;;;4980369;28;20082;-65
2022/09/26 13:51:37;;;;;;;11.00;2.72;;;;;;;;;;4981198;28;20133;-65
2022/09/26 13:54:04;;;;;;;13.07;2.33;;;;;;;;;;4980873;28;20042;-65
2022/09/26 13:56:34;;;;;;;13.43;2.58;;;;;;;;;;4979611;28;20543;-65
2022/09/26 13:59:21;;;;;;;15.48;2.33;;;;;;;;;;4981844;28;20109;-65
2022/09/26 14:02:06;;;;;;;15.35;3.13;;;;;;;;;;4981838;28;20042;-65
2022/09/26 14:04:34;;;;;;;17.05;3.33;;;;;;;;;;4979694;28;20062;-65
2022/09/26 14:09:22;;;;;;;21.17;3.80;;;;;;;;;;4981972;28;20050;-65
2022/09/26 14:09:55;;;;;;;16.42;3.47;;;;;;;;;;4982631;28;20472;-65
2022/09/26 14:12:31;;;;;;;16.55;3.33;;;;;;;;;;4982093;28;20054;-65
2022/09/26 14:15:15;;;;;;;19.67;3.75;;;;;;;;;;4983770;28;20385;-65
2022/09/26 14:17:41;;;;;;;20.17;3.65;;;;;;;;;;4978829;28;20044;-65
2022/09/26 14:20:15;;;;;;;14.98;2.72;;;;;;;;;;4982549;28;20497;-65
2022/09/26 14:22:52;;;;;;;18.20;3.20;;;;;;;;;;4983021;28;20041;-65
2022/09/26 14:25:41;;;;;;;20.88;3.28;;;;;;;;;;4980676;28;20162;-65
2022/09/26 14:28:18;;;;;;;11.80;2.78;;;;;;;;;;4979200;28;20050;-65
2022/09/26 14:31:04;;;;;;;20.50;3.60;;;;;;;;;;4976269;28;20169;-65
2022/09/26 14:33:32;;;;;;;18.02;3.45;;;;;;;;;;4975710;28;20050;-65
2022/09/26 14:36:17;;;;;;;22.00;3.47;;;;;;;;;;4978182;28;20062;-65
2022/09/26 14:38:46;;;;;;;16.30;2.63;;;;;;;;;;4978401;28;20440;-65
2022/09/26 14:41:18;;;;;;;13.73;2.35;;;;;;;;;;4980523;28;20125;-65
2022/09/26 14:43:44;;;;;;;17.55;2.70;;;;;;;;;;4978304;28;20274;-65
2022/09/26 14:46:17;;;;;;;13.50;2.80;;;;;;;;;;4976898;28;20108;-65
2022/09/26 14:48:44;;;;;;;22.15;3.38;;;;;;;;;;4980630;28;20037;-65
2022/09/26 14:51:11;;;;;;;16.80;3.08;;;;;;;;;;4980996;28;20046;-65
2022/09/26 14:53:39;;;;;;;16.92;3.35;;;;;;;;;;4981811;28;20133;-65
2022/09/26 14:56:08;;;;;;;21.52;3.13;;;;;;;;;;4980662;28;20062;-65
2022/09/26 14:58:35;;;;;;;22.70;3.75;;;;;;;;;;4982552;28;20042;-64
2022/09/26 15:01:05;;;;;;;12.63;2.55;;;;;;;;;;4982638;28;20061;-65